sensor_id;sensor_type;location;lat;lon;timestamp;temperature;humidity
56861;DHT22;42744;51.094;3.490;2023-03-05T00:00:12;4.70;99.90
56861;DHT22;42744;51.094;3.490;2023-03-05T00:02:39;4.60;99.90
56861;DHT22;42744;51.094;3.490;2023-03-05T00:05:06;4.60;99.90
56861;DHT22;42744;51.094;3.490;2023-03-05T00:07:32;4.50;99.90
56861;DHT22;42744;51.094;3.490;2023-03-05T00:09:59;4.50;99.90
56861;DHT22;42744;51.094;3.490;2023-03-05T00:12:26;4.50;99.90
56861;DHT22;42744;51.094;3.490;2023-03-05T00:14:52;4.40;99.90
56861;DHT22;42744;51.094;3.490;2023-03-05T00:17:18;4.40;99.90
56861;DHT22;42744;51.094;3.490;2023-03-05T00:19:45;4.40;99.90
56861;DHT22;42744;51.094;3.490;2023-03-05T00:22:11;4.40;99.90
56861;DHT22;42744;51.094;3.490;2023-03-05T00:24:37;4.40;99.90
56861;DHT22;42744;51.094;3.490;2023-03-05T00:27:03;4.30;99.90
56861;DHT22;42744;51.094;3.490;2023-03-05T00:29:29;4.30;99.90
56861;DHT22;42744;51.094;3.490;2023-03-05T00:31:55;4.30;99.90
56861;DHT22;42744;51.094;3.490;2023-03-05T00:34:22;4.30;99.90
56861;DHT22;42744;51.094;3.490;2023-03-05T00:36:51;4.30;99.90
56861;DHT22;42744;51.094;3.490;2023-03-05T00:39:19;4.30;99.90
56861;DHT22;42744;51.094;3.490;2023-03-05T00:41:45;4.30;99.90
56861;DHT22;42744;51.094;3.490;2023-03-05T00:44:11;4.20;99.90
56861;DHT22;42744;51.094;3.490;2023-03-05T00:46:38;4.20;99.90
56861;DHT22;42744;51.094;3.490;2023-03-05T00:49:05;4.10;99.90
56861;DHT22;42744;51.094;3.490;2023-03-05T00:51:31;4.10;99.90
56861;DHT22;42744;51.094;3.490;2023-03-05T00:53:57;4.00;99.90
56861;DHT22;42744;51.094;3.490;2023-03-05T00:56:24;4.00;99.90
56861;DHT22;42744;51.094;3.490;2023-03-05T00:58:49;4.00;99.90
56861;DHT22;42744;51.094;3.490;2023-03-05T01:01:15;4.00;99.90
56861;DHT22;42744;51.094;3.490;2023-03-05T01:03:42;3.90;99.90
56861;DHT22;42744;51.094;3.490;2023-03-05T01:06:10;3.90;99.90
56861;DHT22;42744;51.094;3.490;2023-03-05T01:08:37;3.90;99.90
56861;DHT22;42744;51.094;3.490;2023-03-05T01:11:05;3.80;99.90
56861;DHT22;42744;51.094;3.490;2023-03-05T01:13:32;3.80;99.90
56861;DHT22;42744;51.094;3.490;2023-03-05T01:15:59;3.80;99.90
56861;DHT22;42744;51.094;3.490;2023-03-05T01:18:26;3.80;99.90
56861;DHT22;42744;51.094;3.490;2023-03-05T01:20:52;3.80;99.90
56861;DHT22;42744;51.094;3.490;2023-03-05T01:23:18;3.70;99.90
56861;DHT22;42744;51.094;3.490;2023-03-05T01:25:44;3.70;99.90
56861;DHT22;42744;51.094;3.490;2023-03-05T01:28:10;3.70;99.90
56861;DHT22;42744;51.094;3.490;2023-03-05T01:30:36;3.80;99.90
56861;DHT22;42744;51.094;3.490;2023-03-05T01:33:03;3.80;99.90
56861;DHT22;42744;51.094;3.490;2023-03-05T01:35:29;3.80;99.90
56861;DHT22;42744;51.094;3.490;2023-03-05T01:37:55;3.80;99.90
56861;DHT22;42744;51.094;3.490;2023-03-05T01:40:27;3.80;99.90
56861;DHT22;42744;51.094;3.490;2023-03-05T01:45:37;3.80;99.90
56861;DHT22;42744;51.094;3.490;2023-03-05T01:48:04;3.70;99.90
56861;DHT22;42744;51.094;3.490;2023-03-05T01:50:30;3.70;99.90
56861;DHT22;42744;51.094;3.490;2023-03-05T01:53:03;3.70;99.90
56861;DHT22;42744;51.094;3.490;2023-03-05T01:55:31;3.70;99.90
56861;DHT22;42744;51.094;3.490;2023-03-05T01:58:05;3.70;99.90
56861;DHT22;42744;51.094;3.490;2023-03-05T02:00:37;3.70;99.90
56861;DHT22;42744;51.094;3.490;2023-03-05T02:03:06;3.70;99.90
56861;DHT22;42744;51.094;3.490;2023-03-05T02:05:35;3.70;99.90
56861;DHT22;42744;51.094;3.490;2023-03-05T02:08:05;3.70;99.90
56861;DHT22;42744;51.094;3.490;2023-03-05T02:10:44;3.70;99.90
56861;DHT22;42744;51.094;3.490;2023-03-05T02:13:20;3.70;99.90
56861;DHT22;42744;51.094;3.490;2023-03-05T02:15:48;3.80;99.90
56861;DHT22;42744;51.094;3.490;2023-03-05T02:18:16;3.80;99.90
56861;DHT22;42744;51.094;3.490;2023-03-05T02:23:29;3.80;99.90
56861;DHT22;42744;51.094;3.490;2023-03-05T02:25:57;3.80;99.90
56861;DHT22;42744;51.094;3.490;2023-03-05T02:30:54;3.70;99.90
56861;DHT22;42744;51.094;3.490;2023-03-05T02:33:21;3.70;99.90
56861;DHT22;42744;51.094;3.490;2023-03-05T02:35:48;3.60;99.90
56861;DHT22;42744;51.094;3.490;2023-03-05T02:38:15;3.60;99.90
56861;DHT22;42744;51.094;3.490;2023-03-05T02:40:42;3.40;99.90
56861;DHT22;42744;51.094;3.490;2023-03-05T02:43:09;3.40;99.90
56861;DHT22;42744;51.094;3.490;2023-03-05T02:45:35;3.40;99.90
56861;DHT22;42744;51.094;3.490;2023-03-05T02:48:01;3.40;99.90
56861;DHT22;42744;51.094;3.490;2023-03-05T02:50:28;3.50;99.90
56861;DHT22;42744;51.094;3.490;2023-03-05T02:52:56;3.50;99.90
56861;DHT22;42744;51.094;3.490;2023-03-05T02:55:23;3.50;99.90
56861;DHT22;42744;51.094;3.490;2023-03-05T02:57:49;3.60;99.90
56861;DHT22;42744;51.094;3.490;2023-03-05T03:00:15;3.60;99.90
56861;DHT22;42744;51.094;3.490;2023-03-05T03:02:44;3.60;99.90
56861;DHT22;42744;51.094;3.490;2023-03-05T03:05:10;3.70;99.90
56861;DHT22;42744;51.094;3.490;2023-03-05T03:07:36;3.70;99.90
56861;DHT22;42744;51.094;3.490;2023-03-05T03:10:03;3.70;99.90
56861;DHT22;42744;51.094;3.490;2023-03-05T03:12:30;3.80;99.90
56861;DHT22;42744;51.094;3.490;2023-03-05T03:14:56;3.80;99.90
56861;DHT22;42744;51.094;3.490;2023-03-05T03:17:22;3.80;99.90
56861;DHT22;42744;51.094;3.490;2023-03-05T03:19:48;3.80;99.90
56861;DHT22;42744;51.094;3.490;2023-03-05T03:22:14;3.90;99.90
56861;DHT22;42744;51.094;3.490;2023-03-05T03:24:43;3.90;99.90
56861;DHT22;42744;51.094;3.490;2023-03-05T03:27:09;3.90;99.90
56861;DHT22;42744;51.094;3.490;2023-03-05T03:29:36;3.90;99.90
56861;DHT22;42744;51.094;3.490;2023-03-05T03:32:02;3.90;99.90
56861;DHT22;42744;51.094;3.490;2023-03-05T03:34:29;3.90;99.90
56861;DHT22;42744;51.094;3.490;2023-03-05T03:36:55;3.90;99.90
56861;DHT22;42744;51.094;3.490;2023-03-05T03:39:21;4.00;99.90
56861;DHT22;42744;51.094;3.490;2023-03-05T03:41:52;4.00;99.90
56861;DHT22;42744;51.094;3.490;2023-03-05T03:44:19;4.00;99.90
56861;DHT22;42744;51.094;3.490;2023-03-05T03:46:46;4.00;99.90
56861;DHT22;42744;51.094;3.490;2023-03-05T03:49:19;4.10;99.90
56861;DHT22;42744;51.094;3.490;2023-03-05T03:51:46;4.10;99.90
56861;DHT22;42744;51.094;3.490;2023-03-05T03:54:14;4.10;99.90
56861;DHT22;42744;51.094;3.490;2023-03-05T03:56:40;4.10;99.90
56861;DHT22;42744;51.094;3.490;2023-03-05T03:59:06;4.10;99.90
56861;DHT22;42744;51.094;3.490;2023-03-05T04:01:33;4.20;99.90
56861;DHT22;42744;51.094;3.490;2023-03-05T04:03:59;4.20;99.90
56861;DHT22;42744;51.094;3.490;2023-03-05T04:06:25;4.20;99.90
56861;DHT22;42744;51.094;3.490;2023-03-05T04:08:51;4.20;99.90
56861;DHT22;42744;51.094;3.490;2023-03-05T04:11:17;4.20;99.90
56861;DHT22;42744;51.094;3.490;2023-03-05T04:13:46;4.10;99.90
56861;DHT22;42744;51.094;3.490;2023-03-05T04:16:13;4.20;99.90
56861;DHT22;42744;51.094;3.490;2023-03-05T04:18:40;4.20;99.90
56861;DHT22;42744;51.094;3.490;2023-03-05T04:21:07;4.20;99.90
56861;DHT22;42744;51.094;3.490;2023-03-05T04:23:33;4.20;99.90
56861;DHT22;42744;51.094;3.490;2023-03-05T04:25:59;4.20;99.90
56861;DHT22;42744;51.094;3.490;2023-03-05T04:28:25;4.20;99.90
56861;DHT22;42744;51.094;3.490;2023-03-05T04:30:52;4.20;99.90
56861;DHT22;42744;51.094;3.490;2023-03-05T04:33:18;4.20;99.90
56861;DHT22;42744;51.094;3.490;2023-03-05T04:35:44;4.20;99.90
56861;DHT22;42744;51.094;3.490;2023-03-05T04:38:10;4.20;99.90
56861;DHT22;42744;51.094;3.490;2023-03-05T04:40:38;4.20;99.90
56861;DHT22;42744;51.094;3.490;2023-03-05T04:43:04;4.20;99.90
56861;DHT22;42744;51.094;3.490;2023-03-05T04:45:30;4.20;99.90
56861;DHT22;42744;51.094;3.490;2023-03-05T04:47:57;4.20;99.90
56861;DHT22;42744;51.094;3.490;2023-03-05T04:50:23;4.20;99.90
56861;DHT22;42744;51.094;3.490;2023-03-05T04:52:49;4.10;99.90
56861;DHT22;42744;51.094;3.490;2023-03-05T04:55:16;4.10;99.90
56861;DHT22;42744;51.094;3.490;2023-03-05T04:57:43;4.10;99.90
56861;DHT22;42744;51.094;3.490;2023-03-05T05:00:15;4.00;99.90
56861;DHT22;42744;51.094;3.490;2023-03-05T05:02:46;4.00;99.90
56861;DHT22;42744;51.094;3.490;2023-03-05T05:05:18;4.00;99.90
56861;DHT22;42744;51.094;3.490;2023-03-05T05:07:44;4.00;99.90
56861;DHT22;42744;51.094;3.490;2023-03-05T05:10:11;3.90;99.90
56861;DHT22;42744;51.094;3.490;2023-03-05T05:12:38;4.00;99.90
56861;DHT22;42744;51.094;3.490;2023-03-05T05:15:06;4.00;99.90
56861;DHT22;42744;51.094;3.490;2023-03-05T05:17:32;4.00;99.90
56861;DHT22;42744;51.094;3.490;2023-03-05T05:19:59;4.00;99.90
56861;DHT22;42744;51.094;3.490;2023-03-05T05:22:27;4.00;99.90
56861;DHT22;42744;51.094;3.490;2023-03-05T05:24:54;4.00;99.90
56861;DHT22;42744;51.094;3.490;2023-03-05T05:27:20;4.00;99.90
56861;DHT22;42744;51.094;3.490;2023-03-05T05:29:47;4.00;99.90
56861;DHT22;42744;51.094;3.490;2023-03-05T05:32:19;4.00;99.90
56861;DHT22;42744;51.094;3.490;2023-03-05T05:34:45;4.10;99.90
56861;DHT22;42744;51.094;3.490;2023-03-05T05:37:12;4.10;99.90
56861;DHT22;42744;51.094;3.490;2023-03-05T05:39:38;4.10;99.90
56861;DHT22;42744;51.094;3.490;2023-03-05T05:42:04;4.10;99.90
56861;DHT22;42744;51.094;3.490;2023-03-05T05:44:30;4.10;99.90
56861;DHT22;42744;51.094;3.490;2023-03-05T05:46:58;4.10;99.90
56861;DHT22;42744;51.094;3.490;2023-03-05T05:49:24;4.10;99.90
56861;DHT22;42744;51.094;3.490;2023-03-05T05:51:50;4.10;99.90
56861;DHT22;42744;51.094;3.490;2023-03-05T05:54:16;4.00;99.90
56861;DHT22;42744;51.094;3.490;2023-03-05T05:56:42;3.90;99.90
56861;DHT22;42744;51.094;3.490;2023-03-05T05:59:09;3.90;99.90
56861;DHT22;42744;51.094;3.490;2023-03-05T06:01:35;3.80;99.90
56861;DHT22;42744;51.094;3.490;2023-03-05T06:04:03;3.80;99.90
56861;DHT22;42744;51.094;3.490;2023-03-05T06:06:32;3.80;99.90
56861;DHT22;42744;51.094;3.490;2023-03-05T06:09:00;3.80;99.90
56861;DHT22;42744;51.094;3.490;2023-03-05T06:11:27;3.80;99.90
56861;DHT22;42744;51.094;3.490;2023-03-05T06:13:53;3.80;99.90
56861;DHT22;42744;51.094;3.490;2023-03-05T06:16:21;3.80;99.90
56861;DHT22;42744;51.094;3.490;2023-03-05T06:18:49;3.80;99.90
56861;DHT22;42744;51.094;3.490;2023-03-05T06:21:17;3.80;99.90
56861;DHT22;42744;51.094;3.490;2023-03-05T06:23:44;3.80;99.90
56861;DHT22;42744;51.094;3.490;2023-03-05T06:26:14;3.80;99.90
56861;DHT22;42744;51.094;3.490;2023-03-05T06:28:40;3.80;99.90
56861;DHT22;42744;51.094;3.490;2023-03-05T06:31:12;3.70;99.90
56861;DHT22;42744;51.094;3.490;2023-03-05T06:33:39;3.70;99.90
56861;DHT22;42744;51.094;3.490;2023-03-05T06:36:08;3.70;99.90
56861;DHT22;42744;51.094;3.490;2023-03-05T06:38:34;3.70;99.90
56861;DHT22;42744;51.094;3.490;2023-03-05T06:41:06;3.70;99.90
56861;DHT22;42744;51.094;3.490;2023-03-05T06:43:35;3.70;99.90
56861;DHT22;42744;51.094;3.490;2023-03-05T06:46:05;3.70;99.90
56861;DHT22;42744;51.094;3.490;2023-03-05T06:48:31;3.80;99.90
56861;DHT22;42744;51.094;3.490;2023-03-05T06:50:58;3.80;99.90
56861;DHT22;42744;51.094;3.490;2023-03-05T06:53:24;3.80;99.90
56861;DHT22;42744;51.094;3.490;2023-03-05T06:55:51;3.90;99.90
56861;DHT22;42744;51.094;3.490;2023-03-05T06:58:17;3.90;99.90
56861;DHT22;42744;51.094;3.490;2023-03-05T07:00:44;4.00;99.90
56861;DHT22;42744;51.094;3.490;2023-03-05T07:03:10;4.00;99.90
56861;DHT22;42744;51.094;3.490;2023-03-05T07:05:40;4.10;99.90
56861;DHT22;42744;51.094;3.490;2023-03-05T07:08:07;4.10;99.90
56861;DHT22;42744;51.094;3.490;2023-03-05T07:10:41;4.10;99.90
56861;DHT22;42744;51.094;3.490;2023-03-05T07:13:09;4.20;99.90
56861;DHT22;42744;51.094;3.490;2023-03-05T07:15:38;4.30;99.90
56861;DHT22;42744;51.094;3.490;2023-03-05T07:18:04;4.30;99.90
56861;DHT22;42744;51.094;3.490;2023-03-05T07:20:33;4.30;99.90
56861;DHT22;42744;51.094;3.490;2023-03-05T07:23:00;4.40;99.90
56861;DHT22;42744;51.094;3.490;2023-03-05T07:25:26;4.40;99.90
56861;DHT22;42744;51.094;3.490;2023-03-05T07:27:52;4.40;99.90
56861;DHT22;42744;51.094;3.490;2023-03-05T07:30:18;4.40;99.90
56861;DHT22;42744;51.094;3.490;2023-03-05T07:32:44;4.40;99.90
56861;DHT22;42744;51.094;3.490;2023-03-05T07:35:10;4.40;99.90
56861;DHT22;42744;51.094;3.490;2023-03-05T07:37:36;4.40;99.90
56861;DHT22;42744;51.094;3.490;2023-03-05T07:40:02;4.50;99.90
56861;DHT22;42744;51.094;3.490;2023-03-05T07:42:29;4.60;99.90
56861;DHT22;42744;51.094;3.490;2023-03-05T07:44:56;4.60;99.90
56861;DHT22;42744;51.094;3.490;2023-03-05T07:47:22;4.70;99.90
56861;DHT22;42744;51.094;3.490;2023-03-05T07:49:48;4.80;99.90
56861;DHT22;42744;51.094;3.490;2023-03-05T07:52:14;4.90;99.90
56861;DHT22;42744;51.094;3.490;2023-03-05T07:54:40;4.90;99.90
56861;DHT22;42744;51.094;3.490;2023-03-05T07:57:07;5.00;99.90
56861;DHT22;42744;51.094;3.490;2023-03-05T07:59:34;5.00;99.90
56861;DHT22;42744;51.094;3.490;2023-03-05T08:02:00;5.00;99.90
56861;DHT22;42744;51.094;3.490;2023-03-05T08:04:26;4.90;99.90
56861;DHT22;42744;51.094;3.490;2023-03-05T08:06:54;4.90;99.90
56861;DHT22;42744;51.094;3.490;2023-03-05T08:09:20;4.90;99.90
56861;DHT22;42744;51.094;3.490;2023-03-05T08:11:46;4.90;99.90
56861;DHT22;42744;51.094;3.490;2023-03-05T08:14:12;4.90;99.90
56861;DHT22;42744;51.094;3.490;2023-03-05T08:16:39;4.80;99.90
56861;DHT22;42744;51.094;3.490;2023-03-05T08:19:06;4.90;99.90
56861;DHT22;42744;51.094;3.490;2023-03-05T08:21:34;5.00;99.90
56861;DHT22;42744;51.094;3.490;2023-03-05T08:24:06;5.00;99.90
56861;DHT22;42744;51.094;3.490;2023-03-05T08:26:34;5.00;99.90
56861;DHT22;42744;51.094;3.490;2023-03-05T08:29:03;5.10;99.90
56861;DHT22;42744;51.094;3.490;2023-03-05T08:31:30;5.20;99.90
56861;DHT22;42744;51.094;3.490;2023-03-05T08:33:58;5.20;99.90
56861;DHT22;42744;51.094;3.490;2023-03-05T08:36:24;5.20;99.90
56861;DHT22;42744;51.094;3.490;2023-03-05T08:38:50;5.20;99.90
56861;DHT22;42744;51.094;3.490;2023-03-05T08:41:18;5.30;99.90
56861;DHT22;42744;51.094;3.490;2023-03-05T08:43:44;5.40;99.90
56861;DHT22;42744;51.094;3.490;2023-03-05T08:46:11;5.40;99.90
56861;DHT22;42744;51.094;3.490;2023-03-05T08:48:38;5.50;99.90
56861;DHT22;42744;51.094;3.490;2023-03-05T08:51:10;5.50;99.90
56861;DHT22;42744;51.094;3.490;2023-03-05T08:53:38;5.60;99.90
56861;DHT22;42744;51.094;3.490;2023-03-05T08:56:04;5.70;99.90
56861;DHT22;42744;51.094;3.490;2023-03-05T08:58:31;5.70;99.90
56861;DHT22;42744;51.094;3.490;2023-03-05T09:00:57;5.80;99.90
56861;DHT22;42744;51.094;3.490;2023-03-05T09:03:23;5.70;99.90
56861;DHT22;42744;51.094;3.490;2023-03-05T09:05:49;5.70;99.90
56861;DHT22;42744;51.094;3.490;2023-03-05T09:08:16;5.60;99.90
56861;DHT22;42744;51.094;3.490;2023-03-05T09:10:43;5.60;99.90
56861;DHT22;42744;51.094;3.490;2023-03-05T09:13:10;5.40;99.90
56861;DHT22;42744;51.094;3.490;2023-03-05T09:15:36;5.20;99.90
56861;DHT22;42744;51.094;3.490;2023-03-05T09:18:03;5.10;99.90
56861;DHT22;42744;51.094;3.490;2023-03-05T09:20:29;5.10;99.90
56861;DHT22;42744;51.094;3.490;2023-03-05T09:22:55;5.20;99.90
56861;DHT22;42744;51.094;3.490;2023-03-05T09:25:22;5.20;99.90
56861;DHT22;42744;51.094;3.490;2023-03-05T09:27:48;5.20;99.90
56861;DHT22;42744;51.094;3.490;2023-03-05T09:30:14;5.30;99.90
56861;DHT22;42744;51.094;3.490;2023-03-05T09:32:40;5.40;99.90
56861;DHT22;42744;51.094;3.490;2023-03-05T09:35:07;5.40;99.90
56861;DHT22;42744;51.094;3.490;2023-03-05T09:37:33;5.50;99.90
56861;DHT22;42744;51.094;3.490;2023-03-05T09:39:59;5.60;99.90
56861;DHT22;42744;51.094;3.490;2023-03-05T09:45:27;5.70;99.90
56861;DHT22;42744;51.094;3.490;2023-03-05T09:50:53;5.90;99.90
56861;DHT22;42744;51.094;3.490;2023-03-05T09:56:09;6.10;99.90
56861;DHT22;42744;51.094;3.490;2023-03-05T09:58:53;6.10;99.90
56861;DHT22;42744;51.094;3.490;2023-03-05T10:01:27;6.20;99.90
56861;DHT22;42744;51.094;3.490;2023-03-05T10:06:35;6.30;99.90
56861;DHT22;42744;51.094;3.490;2023-03-05T10:12:05;6.40;99.90
56861;DHT22;42744;51.094;3.490;2023-03-05T10:14:38;6.40;99.90
56861;DHT22;42744;51.094;3.490;2023-03-05T10:25:55;6.60;99.90
56861;DHT22;42744;51.094;3.490;2023-03-05T10:31:16;6.60;99.90
56861;DHT22;42744;51.094;3.490;2023-03-05T10:36:40;6.70;99.90
56861;DHT22;42744;51.094;3.490;2023-03-05T10:39:38;6.70;99.90
56861;DHT22;42744;51.094;3.490;2023-03-05T10:45:00;6.60;99.90
56861;DHT22;42744;51.094;3.490;2023-03-05T10:47:28;6.70;99.90
56861;DHT22;42744;51.094;3.490;2023-03-05T10:49:57;6.80;99.90
56861;DHT22;42744;51.094;3.490;2023-03-05T10:52:30;7.00;99.90
56861;DHT22;42744;51.094;3.490;2023-03-05T10:55:00;7.10;99.90
56861;DHT22;42744;51.094;3.490;2023-03-05T10:57:28;7.20;99.90
56861;DHT22;42744;51.094;3.490;2023-03-05T11:02:32;7.20;99.90
56861;DHT22;42744;51.094;3.490;2023-03-05T11:04:58;7.20;99.90
56861;DHT22;42744;51.094;3.490;2023-03-05T11:12:37;7.20;99.90
56861;DHT22;42744;51.094;3.490;2023-03-05T11:17:43;6.90;99.90
56861;DHT22;42744;51.094;3.490;2023-03-05T11:23:16;6.60;99.90
56861;DHT22;42744;51.094;3.490;2023-03-05T11:26:00;6.40;99.90
56861;DHT22;42744;51.094;3.490;2023-03-05T11:28:31;6.30;99.90
56861;DHT22;42744;51.094;3.490;2023-03-05T11:31:22;6.20;99.90
56861;DHT22;42744;51.094;3.490;2023-03-05T11:36:40;6.30;99.90
56861;DHT22;42744;51.094;3.490;2023-03-05T11:44:53;6.50;99.90
56861;DHT22;42744;51.094;3.490;2023-03-05T11:49:48;6.90;99.90
56861;DHT22;42744;51.094;3.490;2023-03-05T11:52:28;7.10;99.90
56861;DHT22;42744;51.094;3.490;2023-03-05T12:00:31;7.40;99.90
56861;DHT22;42744;51.094;3.490;2023-03-05T12:03:03;7.50;99.90
56861;DHT22;42744;51.094;3.490;2023-03-05T12:05:30;7.60;99.90
56861;DHT22;42744;51.094;3.490;2023-03-05T12:07:59;7.70;99.90
56861;DHT22;42744;51.094;3.490;2023-03-05T12:10:27;7.70;99.90
56861;DHT22;42744;51.094;3.490;2023-03-05T12:16:10;7.70;99.90
56861;DHT22;42744;51.094;3.490;2023-03-05T12:23:59;7.70;99.90
56861;DHT22;42744;51.094;3.490;2023-03-05T12:29:40;7.70;99.90
56861;DHT22;42744;51.094;3.490;2023-03-05T12:40:22;7.50;99.90
56861;DHT22;42744;51.094;3.490;2023-03-05T12:43:02;7.40;99.90
56861;DHT22;42744;51.094;3.490;2023-03-05T12:45:39;7.50;99.90
56861;DHT22;42744;51.094;3.490;2023-03-05T12:53:19;7.40;99.90
56861;DHT22;42744;51.094;3.490;2023-03-05T12:56:02;7.30;99.90
56861;DHT22;42744;51.094;3.490;2023-03-05T12:58:46;7.20;99.90
56861;DHT22;42744;51.094;3.490;2023-03-05T13:01:30;7.20;99.90
56861;DHT22;42744;51.094;3.490;2023-03-05T13:04:04;7.20;99.90
56861;DHT22;42744;51.094;3.490;2023-03-05T13:06:37;7.20;99.90
56861;DHT22;42744;51.094;3.490;2023-03-05T13:11:35;7.10;99.90
56861;DHT22;42744;51.094;3.490;2023-03-05T13:14:02;7.00;99.90
56861;DHT22;42744;51.094;3.490;2023-03-05T13:16:35;6.90;99.90
56861;DHT22;42744;51.094;3.490;2023-03-05T13:19:15;6.80;99.90
56861;DHT22;42744;51.094;3.490;2023-03-05T13:21:41;6.70;99.90
56861;DHT22;42744;51.094;3.490;2023-03-05T13:24:18;6.60;99.90
56861;DHT22;42744;51.094;3.490;2023-03-05T13:26:45;6.60;99.90
56861;DHT22;42744;51.094;3.490;2023-03-05T13:29:15;6.50;99.90
56861;DHT22;42744;51.094;3.490;2023-03-05T13:32:01;6.60;99.90
56861;DHT22;42744;51.094;3.490;2023-03-05T13:34:34;6.70;99.90
56861;DHT22;42744;51.094;3.490;2023-03-05T13:37:16;6.60;99.90
56861;DHT22;42744;51.094;3.490;2023-03-05T13:39:48;6.60;99.90
56861;DHT22;42744;51.094;3.490;2023-03-05T13:42:16;6.60;99.90
56861;DHT22;42744;51.094;3.490;2023-03-05T13:44:42;6.60;99.90
56861;DHT22;42744;51.094;3.490;2023-03-05T13:47:19;6.60;99.90
56861;DHT22;42744;51.094;3.490;2023-03-05T13:49:46;6.50;99.90
56861;DHT22;42744;51.094;3.490;2023-03-05T13:52:23;6.40;99.90
56861;DHT22;42744;51.094;3.490;2023-03-05T13:54:49;6.40;99.90
56861;DHT22;42744;51.094;3.490;2023-03-05T13:57:36;6.40;99.90
56861;DHT22;42744;51.094;3.490;2023-03-05T14:00:06;6.40;99.90
56861;DHT22;42744;51.094;3.490;2023-03-05T14:02:34;6.30;99.90
56861;DHT22;42744;51.094;3.490;2023-03-05T14:05:00;6.30;99.90
56861;DHT22;42744;51.094;3.490;2023-03-05T14:07:39;6.30;99.90
56861;DHT22;42744;51.094;3.490;2023-03-05T14:10:39;6.30;99.90
56861;DHT22;42744;51.094;3.490;2023-03-05T14:13:17;6.30;99.90
56861;DHT22;42744;51.094;3.490;2023-03-05T14:16:05;6.30;99.90
56861;DHT22;42744;51.094;3.490;2023-03-05T14:18:32;6.30;99.90
56861;DHT22;42744;51.094;3.490;2023-03-05T14:21:07;6.30;99.90
56861;DHT22;42744;51.094;3.490;2023-03-05T14:23:48;6.30;99.90
56861;DHT22;42744;51.094;3.490;2023-03-05T14:26:32;6.30;99.90
56861;DHT22;42744;51.094;3.490;2023-03-05T14:34:21;6.10;99.90
56861;DHT22;42744;51.094;3.490;2023-03-05T14:36:51;6.00;99.90
56861;DHT22;42744;51.094;3.490;2023-03-05T14:39:37;6.00;99.90
56861;DHT22;42744;51.094;3.490;2023-03-05T14:45:12;5.90;99.90
56861;DHT22;42744;51.094;3.490;2023-03-05T14:47:38;5.90;99.90
56861;DHT22;42744;51.094;3.490;2023-03-05T14:50:06;5.90;99.90
56861;DHT22;42744;51.094;3.490;2023-03-05T14:52:32;5.80;99.90
56861;DHT22;42744;51.094;3.490;2023-03-05T14:54:59;5.90;99.90
56861;DHT22;42744;51.094;3.490;2023-03-05T14:57:27;5.80;99.90
56861;DHT22;42744;51.094;3.490;2023-03-05T14:59:53;5.80;99.90
56861;DHT22;42744;51.094;3.490;2023-03-05T15:02:23;5.80;99.90
56861;DHT22;42744;51.094;3.490;2023-03-05T15:04:49;5.90;99.90
56861;DHT22;42744;51.094;3.490;2023-03-05T15:07:30;5.90;99.90
56861;DHT22;42744;51.094;3.490;2023-03-05T15:09:57;5.80;99.90
56861;DHT22;42744;51.094;3.490;2023-03-05T15:12:24;5.80;99.90
56861;DHT22;42744;51.094;3.490;2023-03-05T15:14:52;5.80;99.90
56861;DHT22;42744;51.094;3.490;2023-03-05T15:17:36;5.80;99.90
56861;DHT22;42744;51.094;3.490;2023-03-05T15:20:04;5.80;99.90
56861;DHT22;42744;51.094;3.490;2023-03-05T15:22:36;5.80;99.90
56861;DHT22;42744;51.094;3.490;2023-03-05T15:25:03;5.80;99.90
56861;DHT22;42744;51.094;3.490;2023-03-05T15:27:29;5.80;99.90
56861;DHT22;42744;51.094;3.490;2023-03-05T15:29:55;5.80;99.90
56861;DHT22;42744;51.094;3.490;2023-03-05T15:32:21;5.80;99.90
56861;DHT22;42744;51.094;3.490;2023-03-05T15:34:47;5.80;99.90
56861;DHT22;42744;51.094;3.490;2023-03-05T15:37:14;5.80;99.90
56861;DHT22;42744;51.094;3.490;2023-03-05T15:39:39;5.70;99.90
56861;DHT22;42744;51.094;3.490;2023-03-05T15:42:05;5.70;99.90
56861;DHT22;42744;51.094;3.490;2023-03-05T15:44:32;5.70;99.90
56861;DHT22;42744;51.094;3.490;2023-03-05T15:46:58;5.70;99.90
56861;DHT22;42744;51.094;3.490;2023-03-05T15:49:24;5.60;99.90
56861;DHT22;42744;51.094;3.490;2023-03-05T15:51:51;5.70;99.90
56861;DHT22;42744;51.094;3.490;2023-03-05T15:54:18;5.60;99.90
56861;DHT22;42744;51.094;3.490;2023-03-05T15:56:44;5.60;99.90
56861;DHT22;42744;51.094;3.490;2023-03-05T15:59:10;5.60;99.90
56861;DHT22;42744;51.094;3.490;2023-03-05T16:01:38;5.60;99.90
56861;DHT22;42744;51.094;3.490;2023-03-05T16:04:04;5.50;99.90
56861;DHT22;42744;51.094;3.490;2023-03-05T16:06:31;5.50;99.90
56861;DHT22;42744;51.094;3.490;2023-03-05T16:09:02;5.50;99.90
56861;DHT22;42744;51.094;3.490;2023-03-05T16:11:31;5.50;99.90
56861;DHT22;42744;51.094;3.490;2023-03-05T16:14:00;5.50;99.90
56861;DHT22;42744;51.094;3.490;2023-03-05T16:16:28;5.40;99.90
56861;DHT22;42744;51.094;3.490;2023-03-05T16:18:54;5.50;99.90
56861;DHT22;42744;51.094;3.490;2023-03-05T16:21:22;5.40;99.90
56861;DHT22;42744;51.094;3.490;2023-03-05T16:23:48;5.40;99.90
56861;DHT22;42744;51.094;3.490;2023-03-05T16:26:15;5.40;99.90
56861;DHT22;42744;51.094;3.490;2023-03-05T16:28:41;5.40;99.90
56861;DHT22;42744;51.094;3.490;2023-03-05T16:31:07;5.40;99.90
56861;DHT22;42744;51.094;3.490;2023-03-05T16:33:33;5.40;99.90
56861;DHT22;42744;51.094;3.490;2023-03-05T16:36:21;5.40;99.90
56861;DHT22;42744;51.094;3.490;2023-03-05T16:38:49;5.30;99.90
56861;DHT22;42744;51.094;3.490;2023-03-05T16:41:16;5.30;99.90
56861;DHT22;42744;51.094;3.490;2023-03-05T16:43:43;5.30;99.90
56861;DHT22;42744;51.094;3.490;2023-03-05T16:46:11;5.30;99.90
56861;DHT22;42744;51.094;3.490;2023-03-05T16:48:37;5.30;99.90
56861;DHT22;42744;51.094;3.490;2023-03-05T16:51:04;5.30;99.90
56861;DHT22;42744;51.094;3.490;2023-03-05T16:53:31;5.30;99.90
56861;DHT22;42744;51.094;3.490;2023-03-05T16:55:57;5.30;99.90
56861;DHT22;42744;51.094;3.490;2023-03-05T16:58:23;5.20;99.90
56861;DHT22;42744;51.094;3.490;2023-03-05T17:00:49;5.20;99.90
56861;DHT22;42744;51.094;3.490;2023-03-05T17:03:15;5.20;99.90
56861;DHT22;42744;51.094;3.490;2023-03-05T17:05:41;5.20;99.90
56861;DHT22;42744;51.094;3.490;2023-03-05T17:08:08;5.20;99.90
56861;DHT22;42744;51.094;3.490;2023-03-05T17:10:33;5.10;99.90
56861;DHT22;42744;51.094;3.490;2023-03-05T17:12:59;5.10;99.90
56861;DHT22;42744;51.094;3.490;2023-03-05T17:15:26;5.10;99.90
56861;DHT22;42744;51.094;3.490;2023-03-05T17:17:52;5.10;99.90
56861;DHT22;42744;51.094;3.490;2023-03-05T17:20:18;5.00;99.90
56861;DHT22;42744;51.094;3.490;2023-03-05T17:22:45;5.00;99.90
56861;DHT22;42744;51.094;3.490;2023-03-05T17:25:12;5.00;99.90
56861;DHT22;42744;51.094;3.490;2023-03-05T17:27:38;5.00;99.90
56861;DHT22;42744;51.094;3.490;2023-03-05T17:30:06;5.00;99.90
56861;DHT22;42744;51.094;3.490;2023-03-05T17:32:33;4.90;99.90
56861;DHT22;42744;51.094;3.490;2023-03-05T17:35:00;4.90;99.90
56861;DHT22;42744;51.094;3.490;2023-03-05T17:37:26;4.90;99.90